Time;durP1;ratioP1;P1;durP2;ratioP2;P2;SDS_P1;SDS_P2;PMS_P1;PMS_P2;Temp;Humidity;BMP_temperature;BMP_pressure;BME280_temperature;BME280_humidity;BME280_pressure;Samples;Min_cycle;Max_cycle;Signal;HPM_P1;HPM_P2
2022/10/27 00:01:18;;;;;;;1999.90;999.90;;;;;;;13.06;100.00;98879.44;4980239;28;20026;-77
2022/10/27 00:03:43;;;;;;;1999.90;999.90;;;;;;;13.08;100.00;98885.44;4968115;28;20050;-77
2022/10/27 00:06:08;;;;;;;1999.90;999.90;;;;;;;13.08;100.00;98882.69;4966301;28;20361;-77
2022/10/27 00:08:34;;;;;;;1999.90;999.90;;;;;;;13.04;100.00;98889.88;4961985;28;20032;-76
2022/10/27 00:11:02;;;;;;;1999.90;999.90;;;;;;;12.82;100.00;98896.63;4960861;28;20034;-78
2022/10/27 00:13:29;;;;;;;1999.90;999.90;;;;;;;12.64;100.00;98894.59;4972459;28;20026;-78
2022/10/27 00:16:06;;;;;;;1999.90;999.90;;;;;;;12.66;100.00;98906.09;4972688;28;20046;-77
2022/10/27 00:18:32;;;;;;;1999.90;999.90;;;;;;;12.50;100.00;98885.34;4971475;28;20038;-77
2022/10/27 00:21:06;;;;;;;1999.90;999.90;;;;;;;12.46;100.00;98902.66;4971592;28;20031;-77
2022/10/27 00:23:32;;;;;;;1999.90;999.90;;;;;;;12.46;100.00;98899.94;4973470;28;20031;-77
2022/10/27 00:25:58;;;;;;;1999.90;999.90;;;;;;;12.48;100.00;98898.53;4973997;28;20085;-77
2022/10/27 00:28:24;;;;;;;1999.90;999.90;;;;;;;12.49;100.00;98899.34;4973857;28;20026;-77
2022/10/27 00:31:04;;;;;;;1999.90;999.90;;;;;;;12.50;100.00;98899.06;4973625;28;20507;-78
2022/10/27 00:33:30;;;;;;;1999.90;999.90;;;;;;;12.51;100.00;98895.22;4971749;28;20027;-77
2022/10/27 00:35:55;;;;;;;1999.90;999.90;;;;;;;12.50;100.00;98899.06;4973231;28;20385;-77
2022/10/27 00:38:22;;;;;;;1999.90;999.90;;;;;;;12.56;100.00;98906.16;4971787;28;20026;-77
2022/10/27 00:40:48;;;;;;;1999.90;999.90;;;;;;;12.69;100.00;98908.25;4972045;28;20023;-76
2022/10/27 00:43:31;;;;;;;1999.90;999.90;;;;;;;12.63;100.00;98909.41;4973065;28;20053;-77
2022/10/27 00:46:02;;;;;;;1999.90;999.90;;;;;;;12.70;100.00;98912.66;4972934;28;20057;-74
2022/10/27 00:48:30;;;;;;;1999.90;999.90;;;;;;;12.75;100.00;98909.03;4972816;28;20428;-77
2022/10/27 00:50:59;;;;;;;1999.90;999.90;;;;;;;12.73;100.00;98908.50;4973233;28;20185;-76
2022/10/27 00:53:25;;;;;;;1999.90;999.90;;;;;;;12.76;100.00;98905.19;4973126;28;20073;-76
2022/10/27 00:55:50;;;;;;;1999.90;999.90;;;;;;;12.75;100.00;98909.03;4972561;28;20062;-75
2022/10/27 00:58:18;;;;;;;1999.90;999.90;;;;;;;12.73;100.00;98914.00;4972463;28;20395;-75
2022/10/27 01:00:43;;;;;;;1999.90;999.90;;;;;;;12.77;100.00;98924.16;4972725;28;20088;-75
2022/10/27 01:03:11;;;;;;;1999.90;999.90;;;;;;;12.84;100.00;98919.13;4971004;28;20097;-76
2022/10/27 01:05:39;;;;;;;1999.90;999.90;;;;;;;12.81;100.00;98908.72;4972047;28;20038;-77
2022/10/27 01:08:06;;;;;;;1999.90;999.90;;;;;;;12.87;100.00;98918.56;4972186;28;20023;-77
2022/10/27 01:10:31;;;;;;;1999.90;999.90;;;;;;;12.93;100.00;98913.88;4972428;28;20035;-76
2022/10/27 01:12:59;;;;;;;1999.90;999.90;;;;;;;12.98;100.00;98924.78;4972277;28;20374;-77
2022/10/27 01:15:36;;;;;;;1999.90;999.90;;;;;;;13.07;100.00;98923.06;4970828;28;20055;-78
2022/10/27 01:18:20;;;;;;;1999.90;999.90;;;;;;;13.07;100.00;98916.75;4970822;28;20388;-76
2022/10/27 01:20:56;;;;;;;1999.90;999.90;;;;;;;12.86;100.00;98921.59;4970824;28;20034;-76
2022/10/27 01:23:57;;;;;;;1999.90;999.90;;;;;;;12.88;100.00;98920.19;4972013;28;20068;-77
2022/10/27 01:26:43;;;;;;;1999.90;999.90;;;;;;;12.96;100.00;98931.69;4970715;28;20030;-76
2022/10/27 01:29:48;;;;;;;1999.90;999.90;;;;;;;12.96;100.00;98926.19;4970495;28;20551;-77
2022/10/27 01:32:23;;;;;;;1999.90;999.90;;;;;;;12.85;100.00;98925.44;4971980;28;20119;-76
2022/10/27 01:35:27;;;;;;;1999.90;999.90;;;;;;;12.79;100.00;98919.19;4972015;28;20033;-76
2022/10/27 01:38:01;;;;;;;1999.90;999.90;;;;;;;12.89;100.00;98926.53;4972149;28;20058;-76
2022/10/27 01:40:38;;;;;;;1999.90;999.90;;;;;;;12.89;100.00;98918.28;4971930;28;20489;-77
2022/10/27 01:43:13;;;;;;;1999.90;999.90;;;;;;;12.84;100.00;98913.63;4972211;28;20034;-76
2022/10/27 01:45:40;;;;;;;1999.90;999.90;;;;;;;12.79;100.00;98937.56;4971790;28;20078;-75
2022/10/27 01:48:07;;;;;;;1999.90;999.90;;;;;;;12.85;100.00;98926.25;4970465;28;20041;-76
2022/10/27 01:50:37;;;;;;;1999.90;999.90;;;;;;;12.92;100.00;98925.13;4971774;28;20101;-76
2022/10/27 01:53:03;;;;;;;1999.90;999.90;;;;;;;12.97;100.00;98925.88;4971658;28;20023;-77
2022/10/27 01:55:54;;;;;;;1999.90;999.90;;;;;;;13.03;100.00;98929.44;4970442;28;20023;-76
2022/10/27 01:58:35;;;;;;;1999.90;999.90;;;;;;;13.00;100.00;98927.28;4972096;28;20445;-76
2022/10/27 02:01:09;;;;;;;1999.90;999.90;;;;;;;12.99;100.00;98931.13;4971748;28;20029;-75
2022/10/27 02:03:49;;;;;;;1999.90;999.90;;;;;;;12.99;100.00;98931.94;4971688;28;20114;-76
2022/10/27 02:06:25;;;;;;;1999.90;999.90;;;;;;;12.88;100.00;98925.69;4971621;28;20031;-76
2022/10/27 02:08:59;;;;;;;1999.90;999.90;;;;;;;12.73;100.00;98928.56;4972679;28;20031;-77
2022/10/27 02:11:27;;;;;;;1999.90;999.90;;;;;;;12.73;100.00;98923.06;4979167;28;20107;-77
2022/10/27 02:13:57;;;;;;;1999.90;999.90;;;;;;;12.78;100.00;98939.50;4974957;28;20031;-76
2022/10/27 02:16:27;;;;;;;1999.90;999.90;;;;;;;12.82;100.00;98931.50;4971060;28;20069;-76
2022/10/27 02:19:02;;;;;;;1999.90;999.90;;;;;;;12.81;100.00;98936.16;4974548;28;20031;-76
2022/10/27 02:21:30;;;;;;;1999.90;999.90;;;;;;;12.88;100.00;98930.34;4974366;28;20023;-77
2022/10/27 02:23:55;;;;;;;1999.90;999.90;;;;;;;12.92;100.00;98927.88;4974504;28;20118;-76
2022/10/27 02:26:26;;;;;;;1999.90;999.90;;;;;;;12.85;100.00;98919.94;4975768;28;20457;-76
2022/10/27 02:29:16;;;;;;;1999.90;999.90;;;;;;;12.92;100.00;98927.88;4975814;28;20125;-76
2022/10/27 02:31:47;;;;;;;1999.90;999.90;;;;;;;12.97;100.00;98933.34;4975148;28;20030;-76
2022/10/27 02:34:14;;;;;;;1999.90;999.90;;;;;;;12.88;100.00;98925.69;4974987;28;20384;-76
2022/10/27 02:36:39;;;;;;;1999.90;999.90;;;;;;;12.88;100.00;98931.19;4974806;28;20089;-76
2022/10/27 02:39:05;;;;;;;1999.90;999.90;;;;;;;12.83;100.00;98936.72;4974917;28;20027;-76
2022/10/27 02:41:30;;;;;;;1999.90;999.90;;;;;;;12.81;100.00;98936.16;4974633;28;20023;-76
2022/10/27 02:43:55;;;;;;;1999.90;999.90;;;;;;;12.83;100.00;98936.72;4974807;28;20031;-77
2022/10/27 02:46:20;;;;;;;1999.90;999.90;;;;;;;12.84;100.00;98946.59;4974946;28;20033;-77
2022/10/27 02:48:46;;;;;;;1999.90;999.90;;;;;;;12.83;100.00;98939.47;4974836;28;20085;-76
2022/10/27 02:51:11;;;;;;;1999.90;999.90;;;;;;;12.81;100.00;98949.09;4973380;28;20050;-75
2022/10/27 02:53:36;;;;;;;1999.90;999.90;;;;;;;12.80;100.00;98945.53;4973496;28;20069;-77
2022/10/27 02:56:02;;;;;;;1999.90;999.90;;;;;;;12.82;100.00;98948.81;4973316;28;20030;-76
2022/10/27 02:58:27;;;;;;;1999.90;999.90;;;;;;;12.80;100.00;98951.03;4975119;28;20074;-77
2022/10/27 03:00:54;;;;;;;1999.90;999.90;;;;;;;12.74;100.00;98957.66;4974505;28;20093;-77
2022/10/27 03:03:20;;;;;;;1999.90;999.90;;;;;;;12.72;100.00;98950.78;4973330;28;20050;-76
2022/10/27 03:05:46;;;;;;;1999.90;999.90;;;;;;;12.68;100.00;98955.22;4974555;28;20035;-76
2022/10/27 03:08:11;;;;;;;1999.90;999.90;;;;;;;12.60;100.00;98950.31;4974165;28;20113;-78
2022/10/27 03:10:36;;;;;;;1999.90;999.90;;;;;;;12.61;100.00;98952.78;4974443;28;20034;-77
2022/10/27 03:13:01;;;;;;;1999.90;999.90;;;;;;;12.63;100.00;98947.84;4974247;28;20011;-77
2022/10/27 03:15:27;;;;;;;1999.90;999.90;;;;;;;12.64;100.00;98946.75;4975071;28;20035;-77
2022/10/27 03:17:52;;;;;;;1999.90;999.90;;;;;;;12.60;100.00;98942.91;4974233;28;20039;-78
2022/10/27 03:20:17;;;;;;;1999.90;999.90;;;;;;;12.62;100.00;98943.47;4974289;28;20031;-77
2022/10/27 03:22:43;;;;;;;1999.90;999.90;;;;;;;12.68;100.00;98953.31;4972697;28;20029;-77
2022/10/27 03:25:10;;;;;;;1999.90;999.90;;;;;;;12.70;100.00;98955.75;4974349;28;20487;-76
2022/10/27 03:27:38;;;;;;;1999.90;999.90;;;;;;;12.77;100.00;98951.59;4974423;28;20105;-77
2022/10/27 03:30:04;;;;;;;1999.90;999.90;;;;;;;12.77;100.00;98951.59;4974082;28;20035;-77
2022/10/27 03:32:30;;;;;;;1999.90;999.90;;;;;;;12.78;100.00;98958.72;4973968;28;20027;-77
2022/10/27 03:34:55;;;;;;;1999.90;999.90;;;;;;;12.72;100.00;98954.34;4974068;28;20807;-76
2022/10/27 03:37:20;;;;;;;1999.90;999.90;;;;;;;12.69;100.00;98960.41;4973746;28;20054;-76
2022/10/27 03:39:45;;;;;;;1999.90;999.90;;;;;;;12.72;100.00;98962.59;4973779;28;20101;-75
2022/10/27 03:42:11;;;;;;;1999.90;999.90;;;;;;;12.77;100.00;98962.56;4973937;28;20469;-76
2022/10/27 03:44:36;;;;;;;1999.90;999.90;;;;;;;12.73;100.00;98961.50;4973695;28;20504;-75
2022/10/27 03:47:01;;;;;;;1999.90;999.90;;;;;;;12.77;100.00;98962.56;4973732;28;20038;-74
2022/10/27 03:49:27;;;;;;;1999.90;999.90;;;;;;;12.69;100.00;98965.09;4972855;28;20188;-76
2022/10/27 03:51:52;;;;;;;1999.90;999.90;;;;;;;12.64;100.00;98968.69;4975267;28;20099;-77
2022/10/27 03:54:17;;;;;;;1999.90;999.90;;;;;;;12.68;100.00;98969.78;4975608;28;20030;-76
2022/10/27 03:56:42;;;;;;;1999.90;999.90;;;;;;;12.65;100.00;98969.53;4975474;28;20039;-77
2022/10/27 03:59:08;;;;;;;1999.90;999.90;;;;;;;12.62;100.00;98973.66;4975677;28;20639;-76
2022/10/27 04:01:34;;;;;;;1999.90;999.90;;;;;;;12.62;100.00;98965.44;4973844;28;20037;-76
2022/10/27 04:03:59;;;;;;;1999.90;999.90;;;;;;;12.58;100.00;98975.31;4973338;28;20018;-76
2022/10/27 04:06:24;;;;;;;1999.90;999.90;;;;;;;12.50;100.00;98970.41;4973340;28;20045;-77
2022/10/27 04:08:50;;;;;;;1999.90;999.90;;;;;;;12.50;100.00;98967.66;4970375;28;20066;-76
2022/10/27 04:11:15;;;;;;;1999.90;999.90;;;;;;;12.48;100.00;98972.63;4969706;28;20110;-76
2022/10/27 04:13:40;;;;;;;1999.90;999.90;;;;;;;12.50;100.00;98973.16;4961125;28;20089;-76
2022/10/27 04:16:07;;;;;;;1999.90;999.90;;;;;;;12.37;100.00;98979.28;4970899;28;20039;-74
2022/10/27 04:18:32;;;;;;;1999.90;999.90;;;;;;;12.43;100.00;98986.38;4973825;28;20126;-75
2022/10/27 04:21:02;;;;;;;1999.90;999.90;;;;;;;12.46;100.00;98977.59;4978206;28;20090;-76
2022/10/27 04:23:28;;;;;;;1999.90;999.90;;;;;;;12.43;100.00;98980.91;4979412;28;20033;-75
2022/10/27 04:25:54;;;;;;;1999.90;999.90;;;;;;;12.47;100.00;98981.94;4973165;28;20027;-76
2022/10/27 04:28:19;;;;;;;1999.90;999.90;;;;;;;12.49;100.00;98981.69;4973110;28;20499;-76
2022/10/27 04:30:44;;;;;;;1999.90;999.90;;;;;;;12.48;100.00;98982.78;4972507;28;20114;-77
2022/10/27 04:33:10;;;;;;;1999.90;999.90;;;;;;;12.49;100.00;98988.00;4972711;28;20035;-76
2022/10/27 04:35:35;;;;;;;1999.90;999.90;;;;;;;12.50;100.00;98988.81;4972501;28;20058;-76
2022/10/27 04:38:00;;;;;;;1999.90;999.90;;;;;;;12.49;100.00;98982.50;4972466;28;20484;-76
2022/10/27 04:40:26;;;;;;;1999.90;999.90;;;;;;;12.46;100.00;98991.31;4972244;28;20069;-75
2022/10/27 04:42:51;;;;;;;1999.90;999.90;;;;;;;12.58;100.00;98983.56;4972687;28;20026;-76
2022/10/27 04:45:17;;;;;;;1999.90;999.90;;;;;;;12.64;100.00;98995.31;4972381;28;20134;-75
2022/10/27 04:47:43;;;;;;;1999.90;999.90;;;;;;;12.66;100.00;98993.94;4972274;28;20405;-75
2022/10/27 04:50:09;;;;;;;1999.90;999.90;;;;;;;12.54;100.00;98995.38;4971850;28;20034;-76
2022/10/27 04:52:35;;;;;;;1999.90;999.90;;;;;;;12.45;100.00;99000.63;4971314;28;20081;-76
2022/10/27 04:55:00;;;;;;;1999.90;999.90;;;;;;;12.47;100.00;99001.16;4971331;28;20038;-76
2022/10/27 04:57:26;;;;;;;1999.90;999.90;;;;;;;12.47;100.00;99001.16;4972185;28;20109;-76
2022/10/27 04:59:51;;;;;;;1999.90;999.90;;;;;;;12.47;100.00;99006.66;4974694;28;20054;-75
2022/10/27 05:02:16;;;;;;;1999.90;999.90;;;;;;;12.43;100.00;99010.25;4974749;28;20499;-76
2022/10/27 05:04:42;;;;;;;1999.90;999.90;;;;;;;12.36;100.00;99010.56;4975717;28;20485;-75
2022/10/27 05:07:07;;;;;;;1999.90;999.90;;;;;;;12.40;100.00;99010.81;4973344;28;20030;-75
2022/10/27 05:09:32;;;;;;;1999.90;999.90;;;;;;;12.35;100.00;99004.25;4971445;28;20031;-77
2022/10/27 05:11:58;;;;;;;1999.90;999.90;;;;;;;12.28;100.00;99011.94;4974044;28;20528;-76
2022/10/27 05:14:23;;;;;;;1999.90;999.90;;;;;;;12.33;100.00;99008.38;4980718;28;20027;-76
2022/10/27 05:16:48;;;;;;;1999.90;999.90;;;;;;;12.32;100.00;99004.81;4980818;28;20504;-75
2022/10/27 05:19:14;;;;;;;1999.90;999.90;;;;;;;12.26;100.00;99016.91;4978349;28;20027;-78
2022/10/27 05:21:39;;;;;;;1999.90;999.90;;;;;;;12.21;100.00;99013.38;4973481;28;20062;-74
2022/10/27 05:24:04;;;;;;;1999.90;999.90;;;;;;;12.23;100.00;99011.16;4972045;28;20043;-74
2022/10/27 05:26:30;;;;;;;1999.90;999.90;;;;;;;12.21;100.00;99010.63;4993619;28;20019;-82
2022/10/27 05:28:55;;;;;;;1999.90;999.90;;;;;;;12.27;100.00;99014.97;4997320;28;20010;-81
2022/10/27 05:31:20;;;;;;;1999.90;999.90;;;;;;;12.33;100.00;99019.34;4995490;28;20026;-80
2022/10/27 05:33:46;;;;;;;1999.90;999.90;;;;;;;12.29;100.00;99015.50;4996131;28;20026;-85
2022/10/27 05:36:11;;;;;;;1999.90;999.90;;;;;;;12.26;100.00;99013.34;4996209;28;20011;-86
2022/10/27 05:38:38;;;;;;;1999.90;999.90;;;;;;;12.17;100.00;99017.75;4995724;28;20057;-84
2022/10/27 05:41:04;;;;;;;1999.90;999.90;;;;;;;12.24;100.00;99026.50;4997635;28;20038;-84
2022/10/27 05:43:29;;;;;;;1999.90;999.90;;;;;;;12.24;100.00;99018.28;4994792;28;20026;-86
2022/10/27 05:45:54;;;;;;;1999.90;999.90;;;;;;;12.24;100.00;99027.34;4996631;28;20033;-85
2022/10/27 05:48:20;;;;;;;1999.90;999.90;;;;;;;12.28;100.00;99027.56;4994818;28;20043;-86
2022/10/27 05:50:50;;;;;;;1999.90;999.90;;;;;;;12.35;100.00;99030.84;4994568;28;20007;-83
2022/10/27 05:53:15;;;;;;;1999.90;999.90;;;;;;;12.37;100.00;99039.66;5000416;28;20022;-84
2022/10/27 05:55:40;;;;;;;1999.90;999.90;;;;;;;12.42;100.00;99038.78;5001910;28;20122;-84
2022/10/27 05:58:06;;;;;;;1999.90;999.90;;;;;;;12.36;100.00;99038.00;5000248;28;20022;-89
2022/10/27 06:00:34;;;;;;;1999.90;999.90;;;;;;;12.38;100.00;99038.53;4999607;28;20035;-76
2022/10/27 06:03:01;;;;;;;1999.90;999.90;;;;;;;12.43;100.00;99043.19;5001056;28;20026;-86
2022/10/27 06:05:29;;;;;;;1999.90;999.90;;;;;;;12.49;100.00;99053.03;4998635;28;20031;-85
2022/10/27 06:07:55;;;;;;;1999.90;999.90;;;;;;;12.48;100.00;99049.47;5000327;28;20027;-86
2022/10/27 06:10:21;;;;;;;1999.90;999.90;;;;;;;12.45;100.00;99052.78;5016729;28;20022;-85
2022/10/27 06:12:46;;;;;;;1999.90;999.90;;;;;;;12.39;100.00;99048.41;5018747;28;20065;-84
2022/10/27 06:15:12;;;;;;;1999.90;999.90;;;;;;;12.46;100.00;99057.16;5020592;28;20011;-86
2022/10/27 06:17:37;;;;;;;1999.90;999.90;;;;;;;12.41;100.00;99059.91;5021582;28;20081;-81
2022/10/27 06:20:03;;;;;;;1999.90;999.90;;;;;;;12.51;100.00;99068.13;5010324;28;20011;-84
2022/10/27 06:22:29;;;;;;;1999.90;999.90;;;;;;;12.59;100.00;99062.03;5001716;28;20054;-73
2022/10/27 06:24:54;;;;;;;1999.90;999.90;;;;;;;12.55;100.00;99077.44;5000796;28;20006;-85
2022/10/27 06:27:20;;;;;;;1999.90;999.90;;;;;;;12.54;100.00;99073.03;4999734;28;20035;-86
2022/10/27 06:29:45;;;;;;;1999.90;999.90;;;;;;;12.55;100.00;99077.44;4998520;28;20103;-83
2022/10/27 06:32:11;;;;;;;1999.90;999.90;;;;;;;12.56;100.00;99076.31;4980010;28;20115;-86
2022/10/27 06:34:36;;;;;;;1999.90;999.90;;;;;;;12.57;100.00;99080.72;4980838;28;20066;-86
2022/10/27 06:37:05;;;;;;;1999.90;999.90;;;;;;;12.61;100.00;99079.06;4978777;28;20051;-87
2022/10/27 06:39:31;;;;;;;1999.90;999.90;;;;;;;12.61;100.00;99090.03;4979988;28;20042;-84
2022/10/27 06:41:57;;;;;;;1999.90;999.90;;;;;;;12.63;100.00;99087.00;4979899;28;20027;-86
2022/10/27 06:44:23;;;;;;;1999.90;999.90;;;;;;;12.72;100.00;99094.38;4978805;28;20059;-84
2022/10/27 06:46:49;;;;;;;1999.90;999.90;;;;;;;12.72;100.00;99091.63;4978572;28;20015;-82
2022/10/27 06:49:14;;;;;;;1999.90;999.90;;;;;;;12.71;100.00;99106.47;4979114;28;20035;-86
2022/10/27 06:51:39;;;;;;;1999.90;999.90;;;;;;;12.83;100.00;99106.97;4962304;28;20035;-74
2022/10/27 06:54:04;;;;;;;1999.90;999.90;;;;;;;12.84;100.00;99099.56;4955217;28;20019;-74
2022/10/27 06:56:30;;;;;;;1999.90;999.90;;;;;;;12.92;100.00;99112.69;4954928;28;20392;-74
2022/10/27 06:58:55;;;;;;;1999.90;999.90;;;;;;;12.89;100.00;99119.56;4955209;28;20493;-74
2022/10/27 07:01:21;;;;;;;1999.90;999.90;;;;;;;12.99;100.00;99128.88;4955129;28;20078;-73
2022/10/27 07:03:46;;;;;;;1999.90;999.90;;;;;;;12.88;100.00;99125.34;4954381;28;20031;-74
2022/10/27 07:06:11;;;;;;;1999.90;999.90;;;;;;;12.90;100.00;99128.63;4953472;28;20437;-73
2022/10/27 07:08:36;;;;;;;1999.90;999.90;;;;;;;12.99;100.00;99135.19;4955147;28;20446;-74
2022/10/27 07:11:02;;;;;;;1999.90;999.90;;;;;;;13.04;100.00;99134.31;4953530;28;20126;-74
2022/10/27 07:13:27;;;;;;;1999.90;999.90;;;;;;;13.09;100.00;99131.59;4954934;28;20076;-74
2022/10/27 07:15:52;;;;;;;1999.90;999.90;;;;;;;13.13;100.00;99132.66;4953523;28;20039;-73
2022/10/27 07:18:19;;;;;;;1999.90;999.90;;;;;;;13.19;100.00;99137.03;4953222;28;20540;-74
2022/10/27 07:20:47;;;;;;;1999.90;999.90;;;;;;;13.21;100.00;99141.16;4980335;28;20057;-74
2022/10/27 07:23:15;;;;;;;1999.90;999.90;;;;;;;13.26;100.00;99148.53;4983044;28;20027;-75
2022/10/27 07:25:41;;;;;;;1999.90;999.90;;;;;;;13.32;100.00;99155.63;4983205;28;20092;-72
2022/10/27 07:28:07;;;;;;;1999.90;999.90;;;;;;;13.38;100.00;99160.00;4972643;28;20475;-73
2022/10/27 07:30:35;;;;;;;1999.90;999.90;;;;;;;13.39;100.00;99158.91;4969854;28;20035;-72
2022/10/27 07:33:00;;;;;;;1999.90;999.90;;;;;;;13.35;100.00;99157.81;4978468;28;20062;-72
2022/10/27 07:35:26;;;;;;;1999.90;999.90;;;;;;;13.27;100.00;99163.91;4981995;28;20116;-73
2022/10/27 07:37:51;;;;;;;1999.90;999.90;;;;;;;13.34;100.00;99170.72;4979259;28;20039;-73
2022/10/27 07:40:19;;;;;;;1999.90;999.90;;;;;;;13.44;100.00;99169.06;4980177;28;20919;-73
2022/10/27 07:42:46;;;;;;;1999.90;999.90;;;;;;;13.48;100.00;99165.44;4980441;28;20061;-73
2022/10/27 07:45:13;;;;;;;1999.90;999.90;;;;;;;13.51;100.00;99166.78;4975954;28;20101;-73
2022/10/27 07:47:57;;;;;;;1999.90;999.90;;;;;;;13.60;100.00;99170.56;4977394;28;20034;-73
2022/10/27 07:50:28;;;;;;;1999.90;999.90;;;;;;;13.55;100.00;99176.13;4974553;28;20026;-73
2022/10/27 07:52:54;;;;;;;1999.90;999.90;;;;;;;13.58;100.00;99176.38;4972502;28;20141;-73
2022/10/27 07:55:23;;;;;;;1999.90;999.90;;;;;;;13.75;100.00;99170.50;4976724;28;20023;-74
2022/10/27 07:58:25;;;;;;;1999.90;999.90;;;;;;;13.71;100.00;99178.50;4971597;28;20393;-74
2022/10/27 08:00:51;;;;;;;1999.90;999.90;;;;;;;13.81;100.00;99169.34;4967985;28;20489;-73
2022/10/27 08:03:22;;;;;;;1999.90;999.90;;;;;;;13.77;100.00;99177.34;4968920;28;20034;-73
2022/10/27 08:05:48;;;;;;;1999.90;999.90;;;;;;;13.85;100.00;99181.41;4972728;28;20025;-75
2022/10/27 08:08:14;;;;;;;1999.90;999.90;;;;;;;13.97;100.00;99175.56;4972348;28;20067;-75
2022/10/27 08:10:41;;;;;;;1999.90;999.90;;;;;;;13.91;100.00;99174.75;4970603;28;20030;-74
2022/10/27 08:13:08;;;;;;;1999.90;999.90;;;;;;;13.90;100.00;99184.97;4972581;28;20455;-73
2022/10/27 08:15:34;;;;;;;1999.90;999.90;;;;;;;14.00;100.00;99183.25;4971595;28;20130;-74
2022/10/27 08:18:01;;;;;;;1999.90;999.90;;;;;;;14.07;100.00;99184.53;4970911;28;20491;-74
2022/10/27 08:20:30;;;;;;;1999.90;999.90;;;;;;;14.29;100.00;99192.31;4972312;28;20034;-73
2022/10/27 08:22:59;;;;;;;1999.90;999.90;;;;;;;14.38;100.00;99190.63;4972543;28;20484;-74
2022/10/27 08:25:25;;;;;;;1999.90;999.90;;;;;;;14.39;100.00;99186.75;4958122;28;20039;-74
2022/10/27 08:27:51;;;;;;;1999.90;999.90;;;;;;;14.39;100.00;99176.59;4972471;28;20510;-74
2022/10/27 08:30:16;;;;;;;1999.90;999.90;;;;;;;14.58;100.00;99184.94;4970341;28;20031;-73
2022/10/27 08:32:41;;;;;;;1999.90;999.90;;;;;;;14.74;100.00;99188.34;4966129;28;20086;-73
2022/10/27 08:35:07;;;;;;;1999.90;999.90;;;;;;;14.65;100.00;99190.09;4971572;28;20030;-73
2022/10/27 08:37:33;;;;;;;1999.90;999.90;;;;;;;14.98;100.00;99189.97;4974359;28;20058;-73
2022/10/27 08:39:58;;;;;;;1999.90;999.90;;;;;;;15.20;100.00;99205.16;4976263;28;20058;-73
2022/10/27 08:42:48;;;;;;;1999.90;999.90;;;;;;;15.26;100.00;99201.22;4979070;28;20046;-73
2022/10/27 08:45:21;;;;;;;1999.90;999.90;;;;;;;15.62;100.00;99198.84;4971781;28;20050;-74
2022/10/27 08:47:47;;;;;;;1999.90;999.90;;;;;;;15.99;100.00;99205.19;4971821;28;20060;-74
2022/10/27 08:50:22;;;;;;;1999.90;999.90;;;;;;;16.18;100.00;99201.56;4971595;28;20062;-74
2022/10/27 08:53:13;;;;;;;1999.90;999.90;;;;;;;16.43;100.00;99204.72;4971580;28;20058;-74
2022/10/27 08:55:51;;;;;;;1999.90;999.90;;;;;;;16.26;100.00;99203.63;4957615;28;20491;-73
2022/10/27 08:58:37;;;;;;;1999.90;999.90;;;;;;;15.94;100.00;99210.75;4970043;28;20225;-73
2022/10/27 09:01:11;;;;;;;1999.90;999.90;;;;;;;16.30;100.00;99207.44;4971750;28;20507;-74
2022/10/27 09:03:49;;;;;;;1999.90;999.90;;;;;;;16.29;100.00;99208.59;4970230;28;20038;-73
2022/10/27 09:06:53;;;;;;;1999.90;999.90;;;;;;;16.16;100.00;99210.16;4971136;28;20045;-74
2022/10/27 09:09:52;;;;;;;1999.90;999.90;;;;;;;16.07;100.00;99212.78;4971241;28;20035;-73
2022/10/27 09:12:42;;;;;;;1999.90;999.90;;;;;;;15.80;100.00;99204.38;4971087;28;20432;-73
2022/10/27 09:15:30;;;;;;;1999.90;999.90;;;;;;;15.62;100.00;99210.72;4969753;28;20463;-73
2022/10/27 09:18:31;;;;;;;1999.90;999.90;;;;;;;15.63;100.00;99211.53;4971445;28;20049;-73
2022/10/27 09:20:59;;;;;;;1999.90;999.90;;;;;;;16.14;100.00;99206.03;4976979;28;20030;-73
2022/10/27 09:23:34;;;;;;;1999.90;999.90;;;;;;;16.72;100.00;99206.47;4961088;28;20041;-74
2022/10/27 09:26:00;;;;;;;1999.90;999.90;;;;;;;17.44;100.00;99201.97;4965767;28;20061;-74
2022/10/27 09:28:35;;;;;;;1999.90;999.90;;;;;;;18.91;100.00;99213.94;4975196;28;20042;-74
2022/10/27 09:31:03;;;;;;;1999.90;999.90;;;;;;;21.16;100.00;99216.53;4975958;28;20034;-74
2022/10/27 09:33:32;;;;;;;1999.90;999.90;;;;;;;21.61;100.00;99220.41;4975073;28;20499;-73
2022/10/27 09:36:00;;;;;;;1999.90;999.90;;;;;;;21.33;100.00;99216.47;4974284;28;20037;-74
2022/10/27 09:38:27;;;;;;;1999.90;999.90;;;;;;;20.68;100.00;99214.03;4975558;28;20027;-73
2022/10/27 09:40:53;;;;;;;1999.90;999.90;;;;;;;20.39;100.00;99216.72;4971315;28;20070;-74
2022/10/27 09:43:21;;;;;;;1999.90;999.90;;;;;;;19.82;100.00;99214.06;4971291;28;20115;-74
2022/10/27 09:45:54;;;;;;;1999.90;999.90;;;;;;;21.54;100.00;99208.97;4970788;28;20046;-74
2022/10/27 09:48:23;;;;;;;1999.90;999.90;;;;;;;22.58;89.90;99218.19;4971052;28;20045;-74
2022/10/27 09:51:05;;;;;;;1999.90;999.90;;;;;;;24.37;77.54;99228.16;4971347;28;20481;-74
2022/10/27 09:53:39;;;;;;;1999.90;999.90;;;;;;;22.70;83.27;99214.66;4971089;28;20023;-73
2022/10/27 09:56:08;;;;;;;1999.90;999.90;;;;;;;24.03;74.13;99219.50;4971120;28;20077;-74
2022/10/27 09:58:59;;;;;;;1999.90;999.90;;;;;;;24.84;69.99;99224.72;4970043;28;20053;-74
2022/10/27 10:01:48;;;;;;;1999.90;999.90;;;;;;;24.39;69.89;99220.25;4955833;28;20027;-74
2022/10/27 10:04:21;;;;;;;1999.90;999.90;;;;;;;24.68;68.57;99224.66;4971163;28;20035;-74
2022/10/27 10:06:58;;;;;;;1999.90;999.90;;;;;;;24.40;69.87;99221.84;4971061;28;20035;-74
2022/10/27 10:09:31;;;;;;;1999.90;999.90;;;;;;;25.41;65.84;99219.41;4955627;28;20062;-74
2022/10/27 10:12:22;;;;;;;1999.90;999.90;;;;;;;24.81;67.80;99231.03;4971187;28;20054;-74
2022/10/27 10:14:48;;;;;;;1999.90;999.90;;;;;;;25.30;65.89;99220.34;4971257;28;20057;-74
2022/10/27 10:17:27;;;;;;;1999.90;999.90;;;;;;;25.14;64.61;99217.53;4970814;28;20038;-74
2022/10/27 10:19:56;;;;;;;1999.90;999.90;;;;;;;23.50;73.02;99210.25;4970844;28;20062;-74
2022/10/27 10:22:26;;;;;;;1999.90;999.90;;;;;;;23.98;71.45;99218.59;4970975;28;20050;-74
2022/10/27 10:24:53;;;;;;;1999.90;999.90;;;;;;;24.44;69.51;99216.34;4971029;28;20472;-74
2022/10/27 10:27:30;;;;;;;1999.90;999.90;;;;;;;25.07;66.98;99210.91;4970776;28;20034;-74
2022/10/27 10:29:59;;;;;;;1999.90;999.90;;;;;;;24.41;70.20;99211.47;4971344;28;20113;-74
2022/10/27 10:32:28;;;;;;;1999.90;999.90;;;;;;;24.97;67.10;99213.09;4969553;28;20480;-74
2022/10/27 10:34:54;;;;;;;1999.90;999.90;;;;;;;24.52;68.91;99207.84;4969811;28;20039;-73
2022/10/27 10:37:36;;;;;;;1999.90;999.90;;;;;;;25.56;64.59;99213.00;4969218;28;20076;-73
2022/10/27 10:40:27;;;;;;;1999.90;999.90;;;;;;;25.90;62.39;99202.19;4974975;28;20031;-74
2022/10/27 10:43:10;;;;;;;1999.90;999.90;;;;;;;24.96;64.86;99200.28;4974599;28;20035;-74
2022/10/27 10:45:37;;;;;;;1999.90;999.90;;;;;;;26.18;60.72;99205.66;4960246;28;20043;-74
2022/10/27 10:48:22;;;;;;;1999.90;999.90;;;;;;;26.11;60.15;99205.47;4974345;28;20090;-74
2022/10/27 10:50:49;;;;;;;;;;;;;;;25.30;62.99;99207.16;4981410;28;20043;-74
2022/10/27 10:53:33;;;;;;;1999.90;999.90;;;;;;;24.96;64.88;99188.25;4977900;28;19918;-74
2022/10/27 10:56:06;;;;;;;1999.90;999.90;;;;;;;25.54;62.53;99187.34;4974120;28;20492;-74
2022/10/27 10:58:35;;;;;;;1999.90;999.90;;;;;;;25.28;62.40;99186.28;4974166;28;20077;-74